NSZ2026 EVRA-ESGG
Flight info
| Callsign | NSZ2026 |
|---|---|
| Flight time | 1h 1m |
| Altitude | 40000 |
| Route | TENSI DCT DEREX DCT MOXAM |
| Aircraft | B78X/H-SDE1E2E3FGHIJ2J3J4J5M1RWXY/LB1D1 |
Departure
| Time | 2026-04-30 19:08 |
|---|---|
| Airport | Riga International Airport (EVRA) |
Arrival
| Time | 2026-04-30 20:09 |
|---|---|
| Airport | Göteborg Landvetter Airport (ESGG) |
| Time | Latitude | Longitude | Altitude | Speed | Heading |
|---|---|---|---|---|---|
| 2026-04-30 18:22 | 56.92196 | 23.97664 | 49 ft | 0 kts | 6° |
| 2026-04-30 18:53 | 56.92189 | 23.97662 | 49 ft | 2 kts | 6° |
| 2026-04-30 18:53 | 56.92172 | 23.97659 | 47 ft | 2 kts | 6° |
| 2026-04-30 18:54 | 56.92155 | 23.97657 | 46 ft | 2 kts | 336° |
| 2026-04-30 18:54 | 56.92142 | 23.97674 | 45 ft | 2 kts | 308° |
| 2026-04-30 18:54 | 56.92133 | 23.97700 | 47 ft | 2 kts | 290° |
| 2026-04-30 18:54 | 56.92130 | 23.97718 | 46 ft | 1 kts | 280° |
| 2026-04-30 18:55 | 56.92130 | 23.97719 | 46 ft | 0 kts | 279° |
| 2026-04-30 19:00 | 56.92131 | 23.97708 | 46 ft | 2 kts | 279° |
| 2026-04-30 19:00 | 56.92139 | 23.97618 | 45 ft | 5 kts | 279° |
| 2026-04-30 19:01 | 56.92117 | 23.97473 | 49 ft | 7 kts | 213° |
| 2026-04-30 19:01 | 56.92065 | 23.97450 | 49 ft | 8 kts | 187° |
| 2026-04-30 19:02 | 56.91929 | 23.97431 | 50 ft | 11 kts | 184° |
| 2026-04-30 19:02 | 56.91749 | 23.97407 | 50 ft | 14 kts | 184° |
| 2026-04-30 19:03 | 56.91541 | 23.97373 | 50 ft | 15 kts | 185° |
| 2026-04-30 19:03 | 56.91310 | 23.97334 | 50 ft | 18 kts | 185° |
| 2026-04-30 19:04 | 56.91053 | 23.97288 | 51 ft | 19 kts | 184° |
| 2026-04-30 19:04 | 56.90796 | 23.97251 | 46 ft | 17 kts | 185° |
| 2026-04-30 19:05 | 56.90652 | 23.97038 | 51 ft | 14 kts | 249° |
| 2026-04-30 19:05 | 56.90649 | 23.97005 | 49 ft | 0 kts | 264° |
| 2026-04-30 19:06 | 56.90651 | 23.96971 | 51 ft | 4 kts | 276° |
| 2026-04-30 19:06 | 56.90655 | 23.96912 | 46 ft | 6 kts | 277° |
| 2026-04-30 19:06 | 56.90700 | 23.96853 | 50 ft | 6 kts | 349° |
| 2026-04-30 19:07 | 56.90814 | 23.96859 | 49 ft | 10 kts | 7° |
| 2026-04-30 19:07 | 56.90888 | 23.96877 | 49 ft | 11 kts | 6° |
| 2026-04-30 19:08 | 56.91397 | 23.96957 | 48 ft | 100 kts | 5° |
| 2026-04-30 19:08 | 56.93674 | 23.97458 | 772 ft | 184 kts | 6° |
| 2026-04-30 19:08 | 56.94836 | 23.97481 | 2229 ft | 165 kts | 359° |
| 2026-04-30 19:09 | 56.97394 | 23.97834 | 3199 ft | 202 kts | 4° |
| 2026-04-30 19:09 | 56.98872 | 23.98099 | 3780 ft | 217 kts | 4° |
| 2026-04-30 19:09 | 57.00417 | 23.98370 | 4478 ft | 225 kts | 4° |
| 2026-04-30 19:10 | 57.03590 | 23.98922 | 5881 ft | 244 kts | 4° |
| 2026-04-30 19:10 | 57.06784 | 23.97308 | 6002 ft | 249 kts | 323° |
| 2026-04-30 19:11 | 57.07951 | 23.94843 | 6008 ft | 256 kts | 302° |
| 2026-04-30 19:11 | 57.09506 | 23.88896 | 6010 ft | 258 kts | 300° |
| 2026-04-30 19:11 | 57.10278 | 23.85906 | 6009 ft | 258 kts | 300° |
| 2026-04-30 19:12 | 57.10964 | 23.82857 | 5998 ft | 263 kts | 286° |
| 2026-04-30 19:12 | 57.10997 | 23.79444 | 6009 ft | 273 kts | 263° |
| 2026-04-30 19:12 | 57.10480 | 23.76057 | 6013 ft | 276 kts | 259° |
| 2026-04-30 19:13 | 57.09457 | 23.69264 | 6013 ft | 275 kts | 259° |
| 2026-04-30 19:13 | 57.09008 | 23.62471 | 6107 ft | 267 kts | 280° |
| 2026-04-30 19:13 | 57.09055 | 23.59037 | 6647 ft | 272 kts | 276° |
| 2026-04-30 19:14 | 57.09085 | 23.55550 | 7681 ft | 274 kts | 278° |
| 2026-04-30 19:14 | 57.09166 | 23.52029 | 8687 ft | 278 kts | 279° |
| 2026-04-30 19:14 | 57.09256 | 23.48484 | 9667 ft | 284 kts | 278° |
| 2026-04-30 19:14 | 57.09335 | 23.44811 | 10494 ft | 294 kts | 278° |
| 2026-04-30 19:15 | 57.09416 | 23.40888 | 11042 ft | 312 kts | 278° |
| 2026-04-30 19:15 | 57.09586 | 23.32468 | 12050 ft | 347 kts | 277° |
| 2026-04-30 19:15 | 57.09670 | 23.27985 | 12868 ft | 353 kts | 277° |
| 2026-04-30 19:16 | 57.09756 | 23.23430 | 13711 ft | 358 kts | 277° |
| 2026-04-30 19:16 | 57.09845 | 23.18821 | 14499 ft | 363 kts | 278° |
| 2026-04-30 19:16 | 57.10019 | 23.09410 | 15971 ft | 374 kts | 278° |
| 2026-04-30 19:17 | 57.10094 | 23.04584 | 16682 ft | 380 kts | 276° |
| 2026-04-30 19:17 | 57.09949 | 22.94795 | 18050 ft | 391 kts | 276° |
| 2026-04-30 19:17 | 57.09898 | 22.89751 | 18714 ft | 396 kts | 276° |
| 2026-04-30 19:18 | 57.09762 | 22.81159 | 19721 ft | 403 kts | 276° |
| 2026-04-30 19:18 | 57.09659 | 22.74515 | 20470 ft | 408 kts | 276° |
| 2026-04-30 19:18 | 57.09584 | 22.69321 | 21043 ft | 412 kts | 276° |
| 2026-04-30 19:19 | 57.09499 | 22.63962 | 21622 ft | 416 kts | 276° |
| 2026-04-30 19:19 | 57.09342 | 22.58618 | 22160 ft | 425 kts | 269° |
| 2026-04-30 19:19 | 57.08204 | 22.47892 | 23189 ft | 435 kts | 266° |
| 2026-04-30 19:20 | 57.07598 | 22.42294 | 23703 ft | 439 kts | 266° |
| 2026-04-30 19:20 | 57.07187 | 22.36778 | 24162 ft | 432 kts | 276° |
| 2026-04-30 19:20 | 57.07985 | 22.26168 | 24997 ft | 416 kts | 297° |
| 2026-04-30 19:21 | 57.09057 | 22.21556 | 25374 ft | 408 kts | 307° |
| 2026-04-30 19:21 | 57.11827 | 22.12338 | 26173 ft | 412 kts | 307° |
| 2026-04-30 19:22 | 57.14631 | 22.03059 | 27012 ft | 417 kts | 307° |
| 2026-04-30 19:22 | 57.18865 | 21.88930 | 28269 ft | 425 kts | 307° |
| 2026-04-30 19:23 | 57.23194 | 21.74413 | 29553 ft | 433 kts | 306° |
| 2026-04-30 19:24 | 57.26104 | 21.64597 | 30419 ft | 438 kts | 306° |
| 2026-04-30 19:24 | 57.27554 | 21.59695 | 30776 ft | 441 kts | 306° |
| 2026-04-30 19:24 | 57.30507 | 21.49671 | 31516 ft | 447 kts | 306° |
| 2026-04-30 19:25 | 57.34994 | 21.34361 | 32635 ft | 455 kts | 305° |
| 2026-04-30 19:26 | 57.38019 | 21.23978 | 33411 ft | 461 kts | 305° |
| 2026-04-30 19:26 | 57.41079 | 21.13431 | 34145 ft | 467 kts | 305° |
| 2026-04-30 19:26 | 57.42617 | 21.08109 | 34524 ft | 468 kts | 304° |
| 2026-04-30 19:27 | 57.45682 | 20.97467 | 35423 ft | 466 kts | 304° |
| 2026-04-30 19:27 | 57.48725 | 20.86860 | 36265 ft | 465 kts | 304° |
| 2026-04-30 19:28 | 57.50246 | 20.81537 | 36656 ft | 465 kts | 304° |
| 2026-04-30 19:28 | 57.53270 | 20.70923 | 37422 ft | 465 kts | 304° |
| 2026-04-30 19:29 | 57.56279 | 20.60310 | 38128 ft | 465 kts | 303° |
| 2026-04-30 19:29 | 57.57789 | 20.54964 | 38502 ft | 465 kts | 303° |
| 2026-04-30 19:30 | 57.62311 | 20.38884 | 39420 ft | 465 kts | 303° |
| 2026-04-30 19:30 | 57.65304 | 20.28180 | 39920 ft | 466 kts | 303° |
| 2026-04-30 19:31 | 57.67902 | 20.17068 | 40058 ft | 475 kts | 291° |
| 2026-04-30 19:31 | 57.70623 | 19.99345 | 40041 ft | 472 kts | 291° |
| 2026-04-30 19:32 | 57.72434 | 19.87524 | 40047 ft | 472 kts | 291° |
| 2026-04-30 19:32 | 57.74210 | 19.75769 | 40041 ft | 472 kts | 291° |
| 2026-04-30 19:33 | 57.75110 | 19.69793 | 40142 ft | 471 kts | 290° |
| 2026-04-30 19:33 | 57.76006 | 19.63844 | 40268 ft | 474 kts | 290° |
| 2026-04-30 19:33 | 57.77787 | 19.51905 | 40332 ft | 476 kts | 290° |
| 2026-04-30 19:34 | 57.79571 | 19.39881 | 40342 ft | 488 kts | 290° |
| 2026-04-30 19:35 | 57.82309 | 19.21203 | 40347 ft | 497 kts | 290° |
| 2026-04-30 19:35 | 57.84125 | 19.08721 | 40348 ft | 497 kts | 289° |
| 2026-04-30 19:36 | 57.85939 | 18.96143 | 40350 ft | 496 kts | 289° |
| 2026-04-30 19:36 | 57.88618 | 18.77388 | 40342 ft | 496 kts | 289° |
| 2026-04-30 19:37 | 57.90377 | 18.64945 | 40337 ft | 495 kts | 289° |
| 2026-04-30 19:37 | 57.92131 | 18.52451 | 40330 ft | 493 kts | 289° |
| 2026-04-30 19:38 | 57.93869 | 18.39959 | 40326 ft | 493 kts | 288° |
| 2026-04-30 19:38 | 57.95596 | 18.27454 | 40325 ft | 493 kts | 288° |
| 2026-04-30 19:39 | 57.97288 | 18.15104 | 40331 ft | 493 kts | 288° |
| 2026-04-30 19:39 | 57.98991 | 18.02567 | 40333 ft | 493 kts | 288° |
| 2026-04-30 19:40 | 58.00678 | 17.90045 | 40329 ft | 492 kts | 288° |
| 2026-04-30 19:40 | 58.02354 | 17.77511 | 40325 ft | 493 kts | 287° |
| 2026-04-30 19:41 | 58.04009 | 17.65022 | 40320 ft | 493 kts | 287° |
| 2026-04-30 19:41 | 58.05663 | 17.52434 | 40334 ft | 493 kts | 287° |
| 2026-04-30 19:42 | 58.07029 | 17.41960 | 40331 ft | 494 kts | 287° |
| 2026-04-30 19:42 | 58.08662 | 17.29342 | 40325 ft | 494 kts | 287° |
| 2026-04-30 19:43 | 58.10283 | 17.16709 | 40327 ft | 495 kts | 287° |
| 2026-04-30 19:44 | 58.12696 | 16.97692 | 40323 ft | 494 kts | 287° |
| 2026-04-30 19:44 | 58.14279 | 16.85091 | 40317 ft | 495 kts | 286° |
| 2026-04-30 19:45 | 58.15855 | 16.72425 | 40317 ft | 494 kts | 286° |
| 2026-04-30 19:45 | 58.17417 | 16.59765 | 40315 ft | 493 kts | 286° |
| 2026-04-30 19:46 | 58.18965 | 16.47097 | 40316 ft | 493 kts | 286° |
| 2026-04-30 19:46 | 58.20500 | 16.34425 | 40316 ft | 494 kts | 285° |
| 2026-04-30 19:47 | 58.22026 | 16.21720 | 40315 ft | 494 kts | 285° |
| 2026-04-30 19:47 | 58.23537 | 16.09013 | 40315 ft | 494 kts | 285° |
| 2026-04-30 19:48 | 58.25037 | 15.96287 | 40314 ft | 493 kts | 285° |
| 2026-04-30 19:48 | 58.26526 | 15.83536 | 40320 ft | 494 kts | 285° |
| 2026-04-30 19:49 | 58.27992 | 15.70860 | 40316 ft | 494 kts | 285° |
| 2026-04-30 19:49 | 58.30186 | 15.51665 | 40316 ft | 494 kts | 284° |
| 2026-04-30 19:50 | 58.31623 | 15.38953 | 40314 ft | 494 kts | 284° |
| 2026-04-30 19:50 | 58.33008 | 15.26568 | 40316 ft | 494 kts | 284° |
| 2026-04-30 19:51 | 58.34419 | 15.13832 | 40317 ft | 491 kts | 284° |
| 2026-04-30 19:51 | 58.35108 | 15.07559 | 40314 ft | 477 kts | 284° |
| 2026-04-30 19:51 | 58.35776 | 15.01445 | 40286 ft | 468 kts | 284° |
| 2026-04-30 19:52 | 58.36440 | 14.95382 | 39969 ft | 467 kts | 284° |
| 2026-04-30 19:52 | 58.37098 | 14.89323 | 39409 ft | 467 kts | 284° |
| 2026-04-30 19:52 | 58.37753 | 14.83250 | 38744 ft | 468 kts | 284° |
| 2026-04-30 19:52 | 58.38403 | 14.77183 | 37962 ft | 468 kts | 284° |
| 2026-04-30 19:53 | 58.39055 | 14.71092 | 37187 ft | 469 kts | 284° |
| 2026-04-30 19:53 | 58.39705 | 14.64987 | 36397 ft | 470 kts | 284° |
| 2026-04-30 19:53 | 58.40342 | 14.58973 | 35659 ft | 471 kts | 284° |
| 2026-04-30 19:53 | 58.40971 | 14.52992 | 35221 ft | 465 kts | 284° |
| 2026-04-30 19:54 | 58.41606 | 14.46933 | 34742 ft | 460 kts | 284° |
| 2026-04-30 19:54 | 58.42228 | 14.40975 | 34242 ft | 456 kts | 284° |
| 2026-04-30 19:54 | 58.42842 | 14.35071 | 33690 ft | 452 kts | 284° |
| 2026-04-30 19:54 | 58.43444 | 14.29241 | 33135 ft | 448 kts | 285° |
| 2026-04-30 19:55 | 58.44042 | 14.23426 | 32634 ft | 444 kts | 285° |
| 2026-04-30 19:55 | 58.44634 | 14.17647 | 32106 ft | 440 kts | 285° |
| 2026-04-30 19:55 | 58.45217 | 14.11937 | 31600 ft | 436 kts | 285° |
| 2026-04-30 19:55 | 58.45790 | 14.06286 | 31104 ft | 432 kts | 285° |
| 2026-04-30 19:56 | 58.46356 | 14.00673 | 30613 ft | 429 kts | 285° |
| 2026-04-30 19:56 | 58.46918 | 13.95087 | 30073 ft | 425 kts | 285° |
| 2026-04-30 19:56 | 58.47472 | 13.89556 | 29501 ft | 422 kts | 285° |
| 2026-04-30 19:56 | 58.48017 | 13.84076 | 28960 ft | 418 kts | 285° |
| 2026-04-30 19:57 | 58.48412 | 13.78566 | 28416 ft | 419 kts | 275° |
| 2026-04-30 19:57 | 58.48254 | 13.73082 | 27892 ft | 420 kts | 264° |
| 2026-04-30 19:57 | 58.47524 | 13.67644 | 27378 ft | 423 kts | 253° |
| 2026-04-30 19:57 | 58.46243 | 13.62571 | 26852 ft | 425 kts | 241° |
| 2026-04-30 19:58 | 58.44469 | 13.58067 | 26348 ft | 425 kts | 232° |
| 2026-04-30 19:58 | 58.42549 | 13.53786 | 25826 ft | 422 kts | 232° |
| 2026-04-30 19:58 | 58.40668 | 13.49644 | 25348 ft | 419 kts | 232° |
| 2026-04-30 19:58 | 58.38780 | 13.45525 | 24867 ft | 416 kts | 232° |
| 2026-04-30 19:59 | 58.36869 | 13.41346 | 24386 ft | 413 kts | 232° |
| 2026-04-30 19:59 | 58.34990 | 13.37223 | 23933 ft | 410 kts | 232° |
| 2026-04-30 19:59 | 58.31289 | 13.29144 | 22827 ft | 403 kts | 232° |
| 2026-04-30 20:00 | 58.29448 | 13.25142 | 22279 ft | 400 kts | 232° |
| 2026-04-30 20:00 | 58.27625 | 13.21178 | 21777 ft | 397 kts | 231° |
| 2026-04-30 20:00 | 58.25817 | 13.17253 | 21269 ft | 393 kts | 231° |
| 2026-04-30 20:00 | 58.24022 | 13.13368 | 20764 ft | 390 kts | 231° |
| 2026-04-30 20:01 | 58.20537 | 13.05841 | 19784 ft | 384 kts | 231° |
| 2026-04-30 20:01 | 58.18768 | 13.02027 | 19319 ft | 381 kts | 231° |
| 2026-04-30 20:01 | 58.17027 | 12.98283 | 18830 ft | 378 kts | 231° |
| 2026-04-30 20:02 | 58.13578 | 12.90880 | 17778 ft | 372 kts | 231° |
| 2026-04-30 20:02 | 58.11871 | 12.87225 | 17232 ft | 369 kts | 231° |
| 2026-04-30 20:03 | 58.08517 | 12.80059 | 16208 ft | 363 kts | 230° |
| 2026-04-30 20:03 | 58.06846 | 12.76501 | 15707 ft | 360 kts | 230° |
| 2026-04-30 20:03 | 58.05188 | 12.72970 | 15190 ft | 357 kts | 230° |
| 2026-04-30 20:03 | 58.03540 | 12.69466 | 14664 ft | 355 kts | 230° |
| 2026-04-30 20:04 | 58.01883 | 12.65951 | 13581 ft | 364 kts | 230° |
| 2026-04-30 20:04 | 58.00148 | 12.62273 | 12093 ft | 385 kts | 229° |
| 2026-04-30 20:04 | 57.98363 | 12.58531 | 10712 ft | 399 kts | 227° |
| 2026-04-30 20:05 | 57.93534 | 12.52848 | 7832 ft | 418 kts | 207° |
| 2026-04-30 20:05 | 57.90976 | 12.50630 | 6342 ft | 391 kts | 206° |
| 2026-04-30 20:05 | 57.86368 | 12.46384 | 3355 ft | 351 kts | 208° |
| 2026-04-30 20:06 | 57.84236 | 12.44399 | 2493 ft | 320 kts | 208° |
| 2026-04-30 20:06 | 57.82336 | 12.42672 | 2477 ft | 295 kts | 208° |
| 2026-04-30 20:06 | 57.80501 | 12.40993 | 2473 ft | 290 kts | 209° |
| 2026-04-30 20:06 | 57.78792 | 12.39439 | 2467 ft | 253 kts | 209° |
| 2026-04-30 20:07 | 57.77309 | 12.38059 | 2446 ft | 226 kts | 210° |
| 2026-04-30 20:07 | 57.75929 | 12.36800 | 2385 ft | 219 kts | 210° |
| 2026-04-30 20:07 | 57.73269 | 12.34348 | 1803 ft | 209 kts | 210° |
| 2026-04-30 20:08 | 57.71949 | 12.33140 | 1529 ft | 210 kts | 209° |
| 2026-04-30 20:08 | 57.70667 | 12.31970 | 1233 ft | 203 kts | 207° |
| 2026-04-30 20:08 | 57.69418 | 12.30847 | 951 ft | 195 kts | 207° |
| 2026-04-30 20:08 | 57.68260 | 12.29777 | 689 ft | 176 kts | 206° |
| 2026-04-30 20:09 | 57.67226 | 12.28835 | 521 ft | 151 kts | 206° |
| 2026-04-30 20:09 | 57.66544 | 12.28263 | 511 ft | 58 kts | 210° |
| 2026-04-30 20:09 | 57.66051 | 12.27768 | 503 ft | 33 kts | 206° |
| 2026-04-30 20:10 | 57.65738 | 12.27703 | 502 ft | 14 kts | 146° |
| 2026-04-30 20:10 | 57.65730 | 12.27811 | 502 ft | 7 kts | 46° |
| 2026-04-30 20:10 | 57.65777 | 12.27860 | 503 ft | 8 kts | 26° |
| 2026-04-30 20:11 | 57.65892 | 12.27970 | 504 ft | 10 kts | 27° |
| 2026-04-30 20:11 | 57.65960 | 12.28035 | 504 ft | 12 kts | 27° |
| 2026-04-30 20:11 | 57.66034 | 12.28104 | 505 ft | 12 kts | 27° |
| 2026-04-30 20:12 | 57.66200 | 12.28252 | 507 ft | 14 kts | 25° |
| 2026-04-30 20:12 | 57.66287 | 12.28331 | 508 ft | 14 kts | 26° |
| 2026-04-30 20:12 | 57.66380 | 12.28414 | 509 ft | 15 kts | 26° |
| 2026-04-30 20:13 | 57.66477 | 12.28502 | 510 ft | 16 kts | 26° |
| 2026-04-30 20:13 | 57.66573 | 12.28590 | 511 ft | 13 kts | 26° |
| 2026-04-30 20:13 | 57.66642 | 12.28657 | 511 ft | 11 kts | 33° |
| 2026-04-30 20:13 | 57.66657 | 12.28776 | 512 ft | 10 kts | 109° |
| 2026-04-30 20:14 | 57.66625 | 12.28905 | 512 ft | 11 kts | 115° |
| 2026-04-30 20:14 | 57.66617 | 12.28985 | 512 ft | 5 kts | 71° |
| 2026-04-30 20:14 | 57.66643 | 12.29035 | 512 ft | 6 kts | 41° |
| 2026-04-30 20:14 | 57.66682 | 12.29080 | 513 ft | 7 kts | 27° |
| 2026-04-30 20:15 | 57.66709 | 12.29138 | 513 ft | 6 kts | 75° |
| 2026-04-30 20:15 | 57.66692 | 12.29194 | 513 ft | 5 kts | 130° |
| 2026-04-30 20:15 | 57.66685 | 12.29218 | 513 ft | 0 kts | 120° |